Time;durP1;ratioP1;P1;durP2;ratioP2;P2;SDS_P1;SDS_P2;PMS_P1;PMS_P2;Temp;Humidity;BMP_temperature;BMP_pressure;BME280_temperature;BME280_humidity;BME280_pressure;Samples;Min_cycle;Max_cycle;Signal;HPM_P1;HPM_P2
2022/11/01 00:00:24;;;;;;;12.98;8.93;;;;;;;;;;6098323;23;20025;-83
2022/11/01 00:02:50;;;;;;;12.77;9.02;;;;;;;;;;6098052;23;20018;-81
2022/11/01 00:05:16;;;;;;;19.27;8.93;;;;;;;;;;6098075;23;20021;-83
2022/11/01 00:07:42;;;;;;;16.88;9.52;;;;;;;;;;6098240;23;20101;-82
2022/11/01 00:10:08;;;;;;;19.20;9.80;;;13.10;99.90;;;;;;6097685;23;20013;-82
2022/11/01 00:12:34;;;;;;;16.80;9.00;;;;;;;;;;6074081;23;20083;-83
2022/11/01 00:15:00;;;;;;;14.57;8.25;;;;;;;;;;6097908;23;20021;-82
2022/11/01 00:17:26;;;;;;;17.80;8.07;;;;;;;;;;6098398;23;20040;-85
2022/11/01 00:19:52;;;;;;;16.67;7.65;;;;;;;;;;6098219;23;20063;-84
2022/11/01 00:22:18;;;;;;;14.15;7.80;;;;;;;;;;6097975;23;20022;-83
2022/11/01 00:24:44;;;;;;;13.52;8.68;;;;;;;;;;6098195;23;20101;-85
2022/11/01 00:27:11;;;;;;;21.58;7.45;;;;;;;;;;6098199;23;20057;-85
2022/11/01 00:29:37;;;;;;;13.52;8.10;;;;;;;;;;6097778;23;20018;-85
2022/11/01 00:32:03;;;;;;;13.00;7.47;;;;;;;;;;6097934;23;20014;-85
2022/11/01 00:34:29;;;;;;;23.90;8.70;;;;;;;;;;6098402;23;20022;-85
2022/11/01 00:36:55;;;;;;;16.15;7.22;;;;;;;;;;6097954;23;20014;-84
2022/11/01 00:39:21;;;;;;;19.95;8.68;;;;;;;;;;6098222;23;20025;-84
2022/11/01 00:41:47;;;;;;;14.38;7.45;;;;;;;;;;6097627;23;20503;-86
2022/11/01 00:44:13;;;;;;;15.88;8.18;;;;;;;;;;6124236;23;20058;-86
2022/11/01 00:46:39;;;;;;;13.85;7.85;;;;;;;;;;6097939;23;20022;-85
2022/11/01 00:49:05;;;;;;;12.82;7.47;;;;;;;;;;6099381;23;20026;-84
2022/11/01 00:51:31;;;;;;;12.25;7.25;;;;;;;;;;6099875;23;20014;-85
2022/11/01 00:53:57;;;;;;;13.35;7.25;;;;;;;;;;6099625;23;20391;-84
2022/11/01 00:56:23;;;;;;;10.77;7.13;;;;;;;;;;6099702;23;20045;-86
2022/11/01 00:58:49;;;;;;;15.18;7.88;;;;;;;;;;6100021;23;20447;-85
2022/11/01 01:01:15;;;;;;;16.40;7.75;;;;;;;;;;6099565;23;20018;-85
2022/11/01 01:03:41;;;;;;;10.50;7.47;;;;;;;;;;6099835;23;20470;-86
2022/11/01 01:06:07;;;;;;;13.73;6.93;;;;;;;;;;6125816;23;20018;-84
2022/11/01 01:08:33;;;;;;;19.90;7.93;;;;;;;;;;6125502;23;20514;-86
2022/11/01 01:10:59;;;;;;;8.50;6.60;;;;;;;;;;6099661;23;20014;-83
2022/11/01 01:13:25;;;;;;;13.48;7.32;;;;;;;;;;6099781;23;20037;-83
2022/11/01 01:15:51;;;;;;;12.32;8.07;;;;;;;;;;6099659;23;20010;-84
2022/11/01 01:18:17;;;;;;;12.85;7.43;;;;;;;;;;6099303;23;20026;-83
2022/11/01 01:20:43;;;;;;;18.05;8.02;;;;;;;;;;6099641;23;20052;-83
2022/11/01 01:23:09;;;;;;;19.73;8.55;;;;;;;;;;6099162;23;20100;-83
2022/11/01 01:25:39;;;;;;;18.30;7.40;;;14.00;99.90;;;;;;6099684;23;20022;-83
2022/11/01 01:28:05;;;;;;;9.45;7.28;;;;;;;;;;6125445;23;20450;-84
2022/11/01 01:30:31;;;;;;;11.80;6.53;;;;;;;;;;6099117;23;20049;-82
2022/11/01 01:32:57;;;;;;;15.93;7.50;;;;;;;;;;6099252;23;20061;-84
2022/11/01 01:35:23;;;;;;;13.68;8.10;;;;;;;;;;6099687;23;20018;-85
2022/11/01 01:37:49;;;;;;;15.55;8.65;;;;;;;;;;6099165;23;20017;-83
2022/11/01 01:40:15;;;;;;;15.52;7.03;;;;;;;;;;6099045;23;20049;-82
2022/11/01 01:42:42;;;;;;;30.10;7.55;;;;;;;;;;6099365;23;20022;-79
2022/11/01 01:45:11;;;;;;;12.45;7.10;;;;;;;;;;6099045;23;20065;-80
2022/11/01 01:47:39;;;;;;;18.92;7.68;;;14.00;99.90;;;;;;6099209;23;20363;-80
2022/11/01 01:50:15;;;;;;;11.85;6.68;;;14.10;99.90;;;;;;6099314;23;20052;-79
2022/11/01 01:52:47;;;;;;;24.58;7.25;;;;;;;;;;6075243;23;20014;-83
2022/11/01 01:55:17;;;;;;;10.13;6.63;;;14.30;99.90;;;;;;6099242;23;20018;-81
2022/11/01 01:57:44;;;;;;;15.18;7.60;;;;;;;;;;6075256;23;20014;-80
2022/11/01 02:00:10;;;;;;;21.45;7.25;;;;;;;;;;6098972;23;20025;-79
2022/11/01 02:02:36;;;;;;;13.13;6.78;;;;;;;;;;6098798;23;20502;-79
2022/11/01 02:05:11;;;;;;;15.52;7.15;;;14.40;99.90;;;;;;6099235;23;20056;-79
2022/11/01 02:07:37;;;;;;;16.45;7.85;;;;;;;;;;6098798;23;20021;-79
2022/11/01 02:10:03;;;;;;;10.43;7.00;;;14.20;99.90;;;;;;6098903;23;20030;-79
2022/11/01 02:12:34;;;;;;;17.52;7.90;;;14.10;99.90;;;;;;6098945;23;20013;-80
2022/11/01 02:15:00;;;;;;;12.23;7.72;;;;;;;;;;6098798;23;20025;-79
2022/11/01 02:17:37;;;;;;;14.30;7.50;;;14.00;99.90;;;;;;6098937;23;20022;-79
2022/11/01 02:20:02;;;;;;;12.52;6.97;;;14.50;99.90;;;;;;6125014;23;20022;-80
2022/11/01 02:22:49;;;;;;;16.98;7.78;;;14.10;99.90;;;;;;6098701;23;20028;-80
2022/11/01 02:25:33;;;;;;;11.57;6.55;;;14.20;99.90;;;;;;6099319;23;20061;-79
2022/11/01 02:28:19;;;;;;;15.57;6.35;;;;;;;;;;6074782;23;20454;-79
2022/11/01 02:30:59;;;;;;;13.52;7.13;;;14.30;99.90;;;;;;6098926;23;20351;-81
2022/11/01 02:33:44;;;;;;;13.65;7.85;;;;;;;;;;6098909;23;20025;-79
2022/11/01 02:36:27;;;;;;;11.50;7.25;;;14.10;99.90;;;;;;6098426;23;20073;-79
2022/11/01 02:39:04;;;;;;;13.37;6.70;;;;;;;;;;6074977;23;20518;-79
2022/11/01 02:41:34;;;;;;;12.65;7.53;;;14.10;99.90;;;;;;6098424;23;20022;-79
2022/11/01 02:44:09;;;;;;;15.35;6.45;;;14.20;99.90;;;;;;6074789;23;20105;-80
2022/11/01 02:49:25;;;;;;;16.77;8.13;;;14.10;99.90;;;;;;6098686;23;20113;-80
2022/11/01 02:51:52;;;;;;;16.80;7.60;;;14.40;99.90;;;;;;6098726;23;20018;-80
2022/11/01 02:54:28;;;;;;;11.82;7.50;;;;;;;;;;6099109;23;20018;-79
2022/11/01 02:56:54;;;;;;;12.90;6.53;;;;;;;;;;6098913;23;20049;-84
2022/11/01 02:59:26;;;;;;;10.88;5.95;;;14.30;99.90;;;;;;6098661;23;20025;-81
2022/11/01 03:02:09;;;;;;;16.95;6.88;;;14.40;99.90;;;;;;6098872;23;20018;-82
2022/11/01 03:04:35;;;;;;;19.08;6.80;;;;;;;;;;6074225;23;20093;-80
2022/11/01 03:07:05;;;;;;;15.80;6.45;;;14.50;99.90;;;;;;6098591;23;20018;-79
2022/11/01 03:09:32;;;;;;;11.45;6.35;;;;;;;;;;6074519;23;20081;-80
2022/11/01 03:12:01;;;;;;;11.13;5.93;;;;;;;;;;6098209;23;20057;-80
2022/11/01 03:14:30;;;;;;;11.52;5.53;;;;;;;;;;6098538;23;20028;-80
2022/11/01 03:17:12;;;;;;;10.05;5.90;;;14.30;99.90;;;;;;6098110;23;20014;-79
2022/11/01 03:19:48;;;;;;;12.57;7.25;;;;;;;;;;6098369;23;20022;-80
2022/11/01 03:22:51;;;;;;;13.38;6.75;;;14.40;99.90;;;;;;6098380;23;20068;-80
2022/11/01 03:25:43;;;;;;;10.73;6.90;;;14.40;99.90;;;;;;6074227;23;20018;-79
2022/11/01 03:28:47;;;;;;;6.93;5.43;;;14.60;99.90;;;;;;6074381;23;20049;-82
2022/11/01 03:31:19;;;;;;;11.03;6.77;;;14.30;99.90;;;;;;5983072;23;20051;-85
2022/11/01 03:33:53;;;;;;;20.52;6.65;;;14.70;99.90;;;;;;5983121;23;20724;-82
2022/11/01 03:36:22;;;;;;;14.10;7.20;;;14.30;99.90;;;;;;5959830;23;20020;-82
2022/11/01 03:38:56;;;;;;;15.93;6.53;;;14.30;99.90;;;;;;5983171;23;20027;-86
2022/11/01 03:41:22;;;;;;;;;;;14.50;99.90;;;;;;5943111;24;20458;-84
2022/11/01 03:43:48;;;;;;;12.30;6.15;;;;;;;;;;5932033;24;19919;-86
2022/11/01 03:46:15;;;;;;;13.20;6.18;;;;;;;;;;5954880;24;20152;-85
2022/11/01 03:48:41;;;;;;;11.30;6.13;;;;;;;;;;5978084;24;20023;-82
2022/11/01 03:51:07;;;;;;;9.82;5.75;;;;;;;;;;5978315;24;20520;-82
2022/11/01 03:53:33;;;;;;;11.52;5.90;;;14.40;99.90;;;;;;5978076;24;20024;-83
2022/11/01 03:55:59;;;;;;;11.90;6.03;;;;;;;;;;5978517;24;20023;-82
2022/11/01 03:58:40;;;;;;;16.02;6.75;;;;;;;;;;5932263;24;20053;-81
2022/11/01 04:01:09;;;;;;;11.10;5.68;;;14.60;99.90;;;;;;5995873;23;20065;-82
2022/11/01 04:03:35;;;;;;;9.63;5.85;;;14.50;99.90;;;;;;6069267;23;20026;-81
2022/11/01 04:06:01;;;;;;;13.10;6.72;;;;;;;;;;6069605;23;20022;-80
2022/11/01 04:08:27;;;;;;;10.85;6.05;;;;;;;;;;6069660;23;20070;-82
2022/11/01 04:10:53;;;;;;;7.88;5.70;;;;;;;;;;6045446;23;20026;-80
2022/11/01 04:13:19;;;;;;;12.60;6.13;;;;;;;;;;6069431;23;20018;-80
2022/11/01 04:21:23;;;;;;;;;;;14.70;99.90;;;;;;6095607;23;20025;-82
2022/11/01 04:23:49;;;;;;;11.40;5.97;;;;;;;;;;6097067;23;19925;-80
2022/11/01 04:26:17;;;;;;;7.63;5.82;;;14.90;99.90;;;;;;6071088;23;20019;-80
2022/11/01 04:28:58;;;;;;;12.27;5.15;;;;;;;;;;6071348;23;20468;-81
2022/11/01 04:31:30;;;;;;;15.90;6.13;;;15.00;99.90;;;;;;6071401;23;20019;-81
2022/11/01 04:33:57;;;;;;;7.72;5.00;;;15.00;99.90;;;;;;6071354;23;20026;-83
2022/11/01 04:36:24;;;;;;;11.25;5.65;;;;;;;;;;6071306;23;20018;-82
2022/11/01 04:38:51;;;;;;;12.25;5.95;;;14.90;99.90;;;;;;6070891;23;20093;-80
2022/11/01 04:41:18;;;;;;;10.98;5.93;;;15.00;99.90;;;;;;6070663;23;20542;-83
2022/11/01 04:43:45;;;;;;;13.15;5.70;;;15.40;99.90;;;;;;6071184;23;20026;-84
2022/11/01 04:46:12;;;;;;;10.68;5.18;;;;;;;;;;6070981;23;20025;-84
2022/11/01 04:48:38;;;;;;;12.88;6.25;;;;;;;;;;6096893;23;20018;-85
2022/11/01 04:51:04;;;;;;;17.35;6.18;;;;;;;;;;6096753;23;20011;-83
2022/11/01 04:53:29;;;;;;;11.07;5.13;;;15.40;99.90;;;;;;6071190;23;20090;-82
2022/11/01 04:55:55;;;;;;;8.77;5.40;;;;;;;;;;6071291;23;20463;-78
2022/11/01 04:58:21;;;;;;;10.57;5.55;;;;;;;;;;6047568;23;20033;-79
2022/11/01 05:00:47;;;;;;;11.02;5.05;;;15.40;99.90;;;;;;6046047;23;20089;-80
2022/11/01 05:03:13;;;;;;;8.35;4.75;;;;;;;;;;6047113;23;20060;-84
2022/11/01 05:05:39;;;;;;;10.70;5.90;;;;;;;;;;6046927;23;20080;-85
2022/11/01 05:08:07;;;;;;;8.70;4.47;;;;;;;;;;6071002;23;20109;-85
2022/11/01 05:10:35;;;;;;;7.28;4.82;;;15.50;99.90;;;;;;6070426;23;20072;-84
2022/11/01 05:13:01;;;;;;;7.55;4.85;;;;;;;;;;6046916;23;20568;-85
2022/11/01 05:15:27;;;;;;;7.28;4.68;;;;;;;;;;6070830;23;20016;-85
2022/11/01 05:17:53;;;;;;;10.30;5.97;;;;;;;;;;6070795;23;20026;-85
2022/11/01 05:20:19;;;;;;;7.82;5.20;;;;;;;;;;6070649;23;20010;-85
2022/11/01 05:22:45;;;;;;;7.32;4.90;;;;;;;;;;6070385;23;20105;-85
2022/11/01 05:25:12;;;;;;;8.68;4.82;;;;;;;;;;6070693;23;20018;-83
2022/11/01 05:27:38;;;;;;;9.13;5.72;;;15.60;99.90;;;;;;6070279;23;20022;-82
2022/11/01 05:30:05;;;;;;;7.38;4.45;;;15.40;99.90;;;;;;6070657;23;20015;-83
2022/11/01 05:32:31;;;;;;;6.93;3.53;;;;;;;;;;6070473;23;20093;-79
2022/11/01 05:34:57;;;;;;;12.30;3.78;;;;;;;;;;6046522;23;20329;-85
2022/11/01 05:37:23;;;;;;;12.05;3.00;;;;;;;;;;6070494;23;20356;-84
2022/11/01 05:39:49;;;;;;;9.35;3.28;;;;;;;;;;6070567;23;20491;-82
2022/11/01 05:42:15;;;;;;;2.78;2.30;;;15.50;99.90;;;;;;6070655;23;20076;-84
2022/11/01 05:44:41;;;;;;;3.45;2.38;;;;;;;;;;6070494;23;20093;-85
2022/11/01 05:47:07;;;;;;;5.18;2.58;;;;;;;;;;6046405;23;20022;-84
2022/11/01 05:49:33;;;;;;;5.63;2.65;;;;;;;;;;6096447;23;20019;-82
2022/11/01 05:51:59;;;;;;;8.57;4.15;;;;;;;;;;6070000;23;20026;-83
2022/11/01 05:54:25;;;;;;;7.45;3.83;;;;;;;;;;6070553;23;20344;-80
2022/11/01 05:56:51;;;;;;;6.43;3.20;;;;;;;;;;6070448;23;20018;-82
2022/11/01 05:59:17;;;;;;;4.57;2.88;;;;;;;;;;6070533;23;20467;-82
2022/11/01 06:01:43;;;;;;;10.20;3.40;;;;;;;;;;6070439;23;20023;-83
2022/11/01 06:04:09;;;;;;;9.77;3.78;;;;;;;;;;6070364;23;20026;-82
2022/11/01 06:06:35;;;;;;;8.70;3.50;;;;;;;;;;6070565;23;20426;-85
2022/11/01 06:09:01;;;;;;;8.73;2.70;;;;;;;;;;6046332;23;20072;-83
2022/11/01 06:11:28;;;;;;;8.45;2.28;;;;;;;;;;6070281;23;20022;-84
2022/11/01 06:13:54;;;;;;;3.60;1.63;;;15.10;99.90;;;;;;6070498;23;20022;-82
2022/11/01 06:16:21;;;;;;;5.60;1.60;;;;;;;;;;6070206;23;20356;-79
2022/11/01 06:18:47;;;;;;;5.82;1.48;;;;;;;;;;6096019;23;20085;-80
2022/11/01 06:21:13;;;;;;;4.47;1.60;;;;;;;;;;6095234;23;20464;-79
2022/11/01 06:23:39;;;;;;;6.88;1.40;;;;;;;;;;6045854;23;20356;-82
2022/11/01 06:26:05;;;;;;;5.68;1.20;;;14.80;99.90;;;;;;6046129;23;20019;-79
2022/11/01 06:28:32;;;;;;;5.03;1.52;;;;;;;;;;6022543;23;20014;-82
2022/11/01 06:31:02;;;;;;;2.90;1.27;;;14.70;99.90;;;;;;6071316;23;20014;-80
2022/11/01 06:33:28;;;;;;;2.83;1.17;;;;;;;;;;6045749;23;20153;-82
2022/11/01 06:35:55;;;;;;;5.88;1.50;;;;;;;;;;6069851;23;20025;-82
2022/11/01 06:38:24;;;;;;;3.80;1.20;;;;;;;;;;6069858;23;20018;-83
2022/11/01 06:41:00;;;;;;;2.03;1.30;;;;;;;;;;6071795;23;20030;-80
2022/11/01 06:43:26;;;;;;;1.65;1.08;;;;;;;;;;6069856;23;20069;-83
2022/11/01 06:45:53;;;;;;;6.55;1.42;;;;;;;;;;6046124;23;20050;-83
2022/11/01 06:48:19;;;;;;;7.90;1.40;;;;;;;;;;6069975;23;20049;-84
2022/11/01 06:50:45;;;;;;;2.42;1.13;;;;;;;;;;6045620;23;20022;-84
2022/11/01 06:53:11;;;;;;;4.75;1.55;;;;;;;;;;6069890;23;20021;-84
2022/11/01 06:55:37;;;;;;;8.40;1.98;;;;;;;;;;6045792;23;20464;-82
2022/11/01 06:58:03;;;;;;;9.43;1.40;;;;;;;;;;6045940;23;20041;-83
2022/11/01 07:00:30;;;;;;;6.05;1.60;;;;;;;;;;6046168;23;20018;-82
2022/11/01 07:02:57;;;;;;;1.48;1.05;;;;;;;;;;6045770;23;20026;-82
2022/11/01 07:05:23;;;;;;;6.35;1.70;;;;;;;;;;6069946;23;20056;-80
2022/11/01 07:07:49;;;;;;;5.22;1.88;;;;;;;;;;6069302;23;20029;-83
2022/11/01 07:10:15;;;;;;;7.22;2.08;;;;;;;;;;6069196;23;20026;-79
2022/11/01 07:12:41;;;;;;;5.97;1.50;;;;;;;;;;6069564;23;20058;-78
2022/11/01 07:15:07;;;;;;;11.05;2.00;;;;;;;;;;6045697;23;20547;-83
2022/11/01 07:17:33;;;;;;;9.95;2.67;;;13.80;99.90;;;;;;6045537;23;20356;-81
2022/11/01 07:19:59;;;;;;;15.38;1.83;;;;;;;;;;6045806;23;20045;-83
2022/11/01 07:22:25;;;;;;;6.85;1.77;;;;;;;;;;6069677;23;20074;-83
2022/11/01 07:24:51;;;;;;;4.50;1.45;;;;;;;;;;6045537;23;20064;-82
2022/11/01 07:27:17;;;;;;;10.02;1.73;;;;;;;;;;6022120;23;20096;-81
2022/11/01 07:29:43;;;;;;;5.75;1.70;;;;;;;;;;6069422;23;20511;-81
2022/11/01 07:32:09;;;;;;;4.75;2.05;;;;;;;;;;6069244;23;20025;-83
2022/11/01 07:34:35;;;;;;;5.50;1.88;;;;;;;;;;6069024;23;20102;-82
2022/11/01 07:37:01;;;;;;;8.85;1.83;;;;;;;;;;6069557;23;20398;-81
2022/11/01 07:39:27;;;;;;;8.75;2.35;;;;;;;;;;6068851;23;20045;-82
2022/11/01 07:41:53;;;;;;;10.95;2.15;;;;;;;;;;6118595;23;20022;-84
2022/11/01 07:44:19;;;;;;;6.68;2.17;;;13.70;99.90;;;;;;6124557;23;20017;-83
2022/11/01 07:46:45;;;;;;;7.18;2.00;;;;;;;;;;6097906;23;20096;-82
2022/11/01 07:49:11;;;;;;;8.65;1.98;;;;;;;;;;6098160;23;20025;-80
2022/11/01 07:51:37;;;;;;;8.43;2.10;;;;;;;;;;6098328;23;20025;-82
2022/11/01 07:54:03;;;;;;;9.50;2.13;;;;;;;;;;6097894;23;20018;-83
2022/11/01 07:56:29;;;;;;;7.35;1.88;;;;;;;;;;6098149;23;20077;-83
2022/11/01 07:58:55;;;;;;;6.38;1.90;;;;;;;;;;6098364;23;20014;-83
2022/11/01 08:01:21;;;;;;;17.67;3.33;;;;;;;;;;6098564;23;20026;-83
2022/11/01 08:03:48;;;;;;;12.73;2.40;;;;;;;;;;6097949;23;20026;-83
2022/11/01 08:06:14;;;;;;;15.15;2.40;;;;;;;;;;6097911;23;20029;-82
2022/11/01 08:08:40;;;;;;;12.52;2.75;;;;;;;;;;6098069;23;20088;-83
2022/11/01 08:11:06;;;;;;;12.65;3.63;;;;;;;;;;6097678;23;20447;-83
2022/11/01 08:13:32;;;;;;;10.65;3.15;;;;;;;;;;6098286;23;20127;-83
2022/11/01 08:16:01;;;;;;;10.77;3.97;;;14.00;99.90;;;;;;6098368;23;20010;-83
2022/11/01 08:18:27;;;;;;;15.18;2.90;;;;;;;;;;6097912;23;20033;-82
2022/11/01 08:20:53;;;;;;;7.07;2.40;;;;;;;;;;6098508;23;20045;-82
2022/11/01 08:23:19;;;;;;;27.02;3.95;;;;;;;;;;6098091;23;20351;-83
2022/11/01 08:25:45;;;;;;;12.40;3.10;;;;;;;;;;6097992;23;20057;-83
2022/11/01 08:28:14;;;;;;;15.80;3.25;;;14.20;99.90;;;;;;6098731;23;20022;-83
2022/11/01 08:30:41;;;;;;;10.77;3.08;;;14.40;99.90;;;;;;6099511;23;20057;-80
2022/11/01 08:33:08;;;;;;;17.63;2.78;;;;;;;;;;6098180;23;20024;-80
2022/11/01 08:35:34;;;;;;;12.38;3.35;;;;;;;;;;6098506;23;20088;-83
2022/11/01 08:38:02;;;;;;;10.90;2.70;;;;;;;;;;6124346;23;20018;-84
2022/11/01 08:40:28;;;;;;;12.60;2.67;;;;;;;;;;6097756;23;20436;-83
2022/11/01 08:42:55;;;;;;;9.55;2.72;;;14.30;99.90;;;;;;6098223;23;20447;-83
2022/11/01 08:45:21;;;;;;;8.23;2.95;;;;;;;;;;6073911;23;20101;-83
2022/11/01 08:47:47;;;;;;;16.13;3.53;;;;;;;;;;6098108;23;20108;-82
2022/11/01 08:50:14;;;;;;;15.70;3.85;;;14.30;99.90;;;;;;6098059;23;20021;-83
2022/11/01 08:52:41;;;;;;;16.30;2.70;;;;;;;;;;6097953;23;20014;-84
2022/11/01 08:55:07;;;;;;;9.18;2.92;;;;;;;;;;6097505;23;20096;-83
2022/11/01 08:57:33;;;;;;;14.43;3.20;;;;;;;;;;6097882;23;20014;-83
2022/11/01 08:59:59;;;;;;;14.90;2.80;;;;;;;;;;6097982;23;20506;-82
2022/11/01 09:02:25;;;;;;;11.38;2.58;;;;;;;;;;6097892;23;20025;-81
2022/11/01 09:04:51;;;;;;;10.98;2.92;;;;;;;;;;6098074;23;20025;-83
2022/11/01 09:07:18;;;;;;;10.73;3.33;;;;;;;;;;6097627;23;20025;-83
2022/11/01 09:09:44;;;;;;;14.98;3.75;;;;;;;;;;6098964;23;20032;-84
2022/11/01 09:12:11;;;;;;;16.15;3.08;;;;;;;;;;6099681;23;20085;-85
2022/11/01 09:14:38;;;;;;;11.80;3.08;;;;;;;;;;6099778;23;20051;-85
2022/11/01 09:17:04;;;;;;;18.90;3.38;;;;;;;;;;6099718;23;20018;-84
2022/11/01 09:19:30;;;;;;;19.88;3.17;;;;;;;;;;6099375;23;20025;-83
2022/11/01 09:21:56;;;;;;;16.05;2.83;;;;;;;;;;6099575;23;20029;-84
2022/11/01 09:24:22;;;;;;;14.98;3.25;;;;;;;;;;6099570;23;20022;-84
2022/11/01 09:26:49;;;;;;;9.90;3.70;;;;;;;;;;6099241;23;20378;-83
2022/11/01 09:29:17;;;;;;;17.92;3.50;;;;;;;;;;6099299;23;20084;-84
2022/11/01 09:31:43;;;;;;;13.27;4.05;;;;;;;;;;6099185;23;20097;-84
2022/11/01 09:34:10;;;;;;;12.43;2.30;;;;;;;;;;6125647;23;20021;-84
2022/11/01 09:36:37;;;;;;;11.85;3.33;;;;;;;;;;6125405;23;20018;-84
2022/11/01 09:39:03;;;;;;;11.55;3.58;;;;;;;;;;6099176;23;20021;-84
2022/11/01 09:41:46;;;;;;;14.88;3.67;;;14.20;99.90;;;;;;6074945;23;20459;-85
2022/11/01 09:44:29;;;;;;;11.95;3.17;;;14.40;99.90;;;;;;6098952;23;20062;-84
2022/11/01 09:46:57;;;;;;;21.00;3.08;;;;;;;;;;6125476;23;20065;-83
2022/11/01 09:49:26;;;;;;;11.65;2.53;;;;;;;;;;6125611;23;20018;-85
2022/11/01 09:51:52;;;;;;;21.52;3.42;;;;;;;;;;6125144;23;20050;-83
2022/11/01 09:54:20;;;;;;;15.35;3.45;;;;;;;;;;6125323;23;20025;-83
2022/11/01 09:56:50;;;;;;;12.07;3.25;;;;;;;;;;6098956;23;20096;-83
2022/11/01 09:59:54;;;;;;;14.40;3.28;;;;;;;;;;6099050;23;20026;-82
2022/11/01 10:02:20;;;;;;;17.17;3.58;;;;;;;;;;5983521;23;20339;-82
2022/11/01 10:04:56;;;;;;;12.35;2.95;;;;;;;;;;5960382;23;20466;-83
2022/11/01 10:07:36;;;;;;;13.43;2.53;;;14.70;99.90;;;;;;5960785;23;20032;-81
2022/11/01 10:10:25;;;;;;;15.98;3.75;;;;;;;;;;5983566;23;20405;-82
2022/11/01 10:13:00;;;;;;;11.52;3.00;;;;;;;;;;5923011;24;20104;-82
2022/11/01 10:15:59;;;;;;;9.50;3.40;;;14.70;99.90;;;;;;5923767;24;20021;-79
2022/11/01 10:18:31;;;;;;;14.07;3.90;;;14.90;99.90;;;;;;5923727;24;20021;-82
2022/11/01 10:21:03;;;;;;;15.93;3.55;;;;;;;;;;5900692;24;20037;-83
2022/11/01 10:23:40;;;;;;;21.10;3.90;;;;;;;;;;5900696;24;20056;-82
2022/11/01 10:26:11;;;;;;;16.02;3.67;;;14.90;99.90;;;;;;5923401;24;20053;-82
2022/11/01 10:29:00;;;;;;;12.93;3.55;;;15.10;99.90;;;;;;5923817;24;20367;-82
2022/11/01 10:31:27;;;;;;;10.30;2.53;;;14.90;99.90;;;;;;5900695;24;20474;-81
2022/11/01 10:33:56;;;;;;;16.42;3.60;;;;;;;;;;5997315;23;20034;-82
2022/11/01 10:36:27;;;;;;;19.38;3.47;;;15.20;99.90;;;;;;5988243;23;20107;-83
2022/11/01 10:39:30;;;;;;;18.48;3.13;;;15.00;99.90;;;;;;5988488;23;20023;-83
2022/11/01 10:41:57;;;;;;;18.92;3.90;;;15.00;99.90;;;;;;5987817;23;20364;-81
2022/11/01 10:44:54;;;;;;;14.10;3.10;;;15.00;99.90;;;;;;6035281;23;20419;-81
2022/11/01 10:47:21;;;;;;;15.77;2.92;;;;;;;;;;5932160;23;20028;-84
2022/11/01 10:49:55;;;;;;;12.65;3.72;;;15.10;99.90;;;;;;5968868;23;20028;-83
2022/11/01 10:52:28;;;;;;;17.75;4.15;;;15.00;99.90;;;;;;5983445;23;20034;-82
2022/11/01 10:54:56;;;;;;;15.77;4.07;;;;;;;;;;5983509;23;20442;-82
2022/11/01 10:57:28;;;;;;;9.27;2.75;;;;;;;;;;5960047;23;20020;-84
2022/11/01 10:59:56;;;;;;;17.60;3.53;;;14.80;99.90;;;;;;5960258;23;20031;-83
2022/11/01 11:02:27;;;;;;;9.02;2.80;;;;;;;;;;5983264;23;20016;-84
2022/11/01 11:04:53;;;;;;;9.52;3.42;;;;;;;;;;6006963;23;20378;-82
2022/11/01 11:07:20;;;;;;;22.48;4.43;;;14.90;99.90;;;;;;5959962;23;20331;-79
2022/11/01 11:09:48;;;;;;;14.68;2.92;;;;;;;;;;5983107;23;20325;-82
2022/11/01 11:12:23;;;;;;;16.10;3.45;;;14.80;99.90;;;;;;5983118;23;20020;-83
2022/11/01 11:14:54;;;;;;;17.10;3.60;;;14.80;99.90;;;;;;5983342;23;20358;-83
2022/11/01 11:17:38;;;;;;;15.80;3.42;;;14.80;99.90;;;;;;5983079;23;20026;-83
2022/11/01 11:20:07;;;;;;;13.40;3.35;;;14.90;99.90;;;;;;5982946;23;20103;-83
2022/11/01 11:22:36;;;;;;;13.38;3.75;;;;;;;;;;5987533;23;20024;-82
2022/11/01 11:25:03;;;;;;;12.45;2.72;;;;;;;;;;6097902;23;20093;-82
2022/11/01 11:27:30;;;;;;;7.85;2.40;;;;;;;;;;6098359;23;20412;-83
2022/11/01 11:30:06;;;;;;;9.93;2.95;;;14.70;99.90;;;;;;6098538;23;20018;-83
2022/11/01 11:32:36;;;;;;;11.52;3.28;;;14.90;99.90;;;;;;6098434;23;20017;-81
2022/11/01 11:35:17;;;;;;;14.63;4.25;;;;;;;;;;6074037;23;20010;-83
2022/11/01 11:37:56;;;;;;;21.73;4.22;;;14.90;99.90;;;;;;6124514;23;20018;-80
2022/11/01 11:40:26;;;;;;;13.55;2.90;;;;;;;;;;6098082;23;20033;-80
2022/11/01 11:42:54;;;;;;;9.02;3.42;;;;;;;;;;6098301;23;20526;-83
2022/11/01 11:45:28;;;;;;;14.70;3.90;;;15.00;99.90;;;;;;6098113;23;20108;-82
2022/11/01 11:47:56;;;;;;;10.75;3.40;;;15.10;99.90;;;;;;6124040;23;20447;-82
2022/11/01 11:50:25;;;;;;;16.98;3.47;;;;;;;;;;6074301;23;20462;-82
2022/11/01 11:52:58;;;;;;;14.73;2.83;;;15.30;99.90;;;;;;6098341;23;20026;-80
2022/11/01 11:55:27;;;;;;;10.77;2.37;;;;;;;;;;6098902;23;20010;-82
2022/11/01 11:57:54;;;;;;;12.55;2.90;;;15.40;99.90;;;;;;6097935;23;20852;-82
2022/11/01 12:00:22;;;;;;;14.82;3.60;;;15.40;99.90;;;;;;6074144;23;20535;-81
2022/11/01 12:02:49;;;;;;;10.98;2.83;;;15.50;99.90;;;;;;6124342;23;20018;-82
2022/11/01 12:05:17;;;;;;;14.02;3.35;;;15.50;99.90;;;;;;6073906;23;20025;-82
2022/11/01 12:07:48;;;;;;;10.88;2.58;;;15.40;99.90;;;;;;6098128;23;20022;-82
2022/11/01 12:10:34;;;;;;;13.43;2.97;;;;;;;;;;6073694;23;20018;-82
2022/11/01 12:13:01;;;;;;;7.68;3.28;;;;;;;;;;6098017;23;20029;-82
2022/11/01 12:15:28;;;;;;;17.20;3.72;;;15.50;99.90;;;;;;6098145;23;20029;-81
2022/11/01 12:17:55;;;;;;;14.27;3.22;;;15.60;99.90;;;;;;6074206;23;20029;-81
2022/11/01 12:20:23;;;;;;;12.07;3.22;;;15.70;99.90;;;;;;6098080;23;20053;-83
2022/11/01 12:22:55;;;;;;;15.32;2.75;;;15.70;99.90;;;;;;6073963;23;20351;-83
2022/11/01 12:25:23;;;;;;;7.97;3.13;;;15.80;99.90;;;;;;6097757;23;20077;-83
2022/11/01 12:28:06;;;;;;;15.18;2.67;;;15.70;99.90;;;;;;6074201;23;20025;-83
2022/11/01 12:30:34;;;;;;;10.63;2.95;;;15.80;99.90;;;;;;6073875;23;20068;-83
2022/11/01 12:33:27;;;;;;;9.50;2.22;;;15.70;99.90;;;;;;6073933;23;20084;-84
2022/11/01 12:35:53;;;;;;;12.55;3.75;;;;;;;;;;6074390;23;20053;-83
2022/11/01 12:38:34;;;;;;;10.98;2.75;;;15.70;99.90;;;;;;6098152;23;20029;-84
2022/11/01 12:41:22;;;;;;;10.82;2.88;;;15.70;99.90;;;;;;6097684;23;20048;-84
2022/11/01 12:44:00;;;;;;;10.77;3.25;;;;;;;;;;6074892;23;20021;-84
2022/11/01 12:46:32;;;;;;;10.15;3.45;;;;;;;;;;6099970;23;20351;-84
2022/11/01 12:49:07;;;;;;;9.10;3.15;;;;;;;;;;6125915;23;20024;-82
2022/11/01 12:51:45;;;;;;;10.88;3.28;;;;;;;;;;6100058;23;20035;-84
2022/11/01 12:54:11;;;;;;;10.07;3.55;;;;;;;;;;6099900;23;20014;-83
2022/11/01 12:56:37;;;;;;;17.00;2.60;;;;;;;;;;6099648;23;20467;-83
2022/11/01 12:59:05;;;;;;;19.45;3.80;;;;;;;;;;6125372;23;20482;-82
2022/11/01 13:01:37;;;;;;;9.68;2.78;;;;;;;;;;6125805;23;20092;-81
2022/11/01 13:04:19;;;;;;;7.13;2.55;;;;;;;;;;6125842;23;20110;-82
2022/11/01 13:06:45;;;;;;;5.20;2.65;;;;;;;;;;6099898;23;20050;-80
2022/11/01 13:09:20;;;;;;;8.50;2.25;;;16.10;99.90;;;;;;6099570;23;20010;-80
2022/11/01 13:11:55;;;;;;;13.75;3.03;;;;;;;;;;6075660;23;20025;-80
2022/11/01 13:14:42;;;;;;;15.38;3.08;;;16.20;99.90;;;;;;6099707;23;20036;-81
2022/11/01 13:17:33;;;;;;;11.73;3.35;;;16.00;99.90;;;;;;6099573;23;20025;-84
2022/11/01 13:20:22;;;;;;;8.85;3.05;;;16.10;99.90;;;;;;6079670;23;20069;-84
2022/11/01 13:22:48;;;;;;;11.73;3.55;;;;;;;;;;6099448;23;20026;-83
2022/11/01 13:25:41;;;;;;;14.90;2.55;;;16.00;99.90;;;;;;6099579;23;20479;-84
2022/11/01 13:28:24;;;;;;;9.02;2.58;;;;;;;;;;6099522;23;20444;-82
2022/11/01 13:30:56;;;;;;;10.57;2.85;;;;;;;;;;6099527;23;20017;-84
2022/11/01 13:33:48;;;;;;;8.10;2.75;;;16.30;99.90;;;;;;6099612;23;20022;-84
2022/11/01 13:36:14;;;;;;;5.18;1.88;;;;;;;;;;6125400;23;20029;-81
2022/11/01 13:38:43;;;;;;;4.20;1.67;;;;;;;;;;6099384;23;20022;-83
2022/11/01 13:41:19;;;;;;;8.60;2.28;;;16.30;99.90;;;;;;6089959;23;20026;-82
2022/11/01 13:44:24;;;;;;;8.88;2.33;;;16.10;99.90;;;;;;6070147;23;20027;-82
2022/11/01 13:47:13;;;;;;;9.70;2.25;;;;;;;;;;6064546;23;20093;-80
2022/11/01 13:49:43;;;;;;;10.52;3.50;;;;;;;;;;6069597;23;20018;-82
2022/11/01 13:52:18;;;;;;;6.38;2.13;;;;;;;;;;6096213;23;20022;-82
2022/11/01 13:55:09;;;;;;;4.40;1.92;;;16.30;99.90;;;;;;6046240;23;20021;-80
2022/11/01 13:57:35;;;;;;;9.65;2.53;;;;;;;;;;6046669;23;20019;-81
2022/11/01 14:00:05;;;;;;;7.85;2.10;;;16.30;99.90;;;;;;6070631;23;20069;-82
2022/11/01 14:02:52;;;;;;;7.47;2.20;;;16.30;99.90;;;;;;6070706;23;20416;-82
2022/11/01 14:05:18;;;;;;;12.43;2.00;;;16.30;99.90;;;;;;6070598;23;20037;-82
2022/11/01 14:07:44;;;;;;;4.30;2.00;;;;;;;;;;6070724;23;20018;-81
2022/11/01 14:10:30;;;;;;;11.05;2.60;;;;;;;;;;6046410;23;20061;-81
2022/11/01 14:12:56;;;;;;;4.32;1.90;;;;;;;;;;6051274;23;20158;-82
2022/11/01 14:15:24;;;;;;;6.97;2.50;;;16.20;99.90;;;;;;6070550;23;20022;-81
2022/11/01 14:17:56;;;;;;;8.20;2.22;;;;;;;;;;6070621;23;20018;-82